sensor_id;sensor_type;location;lat;lon;timestamp;pressure;altitude;pressure_sealevel;temperature;humidity
71966;BME280;59836;52.132;5.442;2023-06-22T00:02:25;101986.19;;;18.71;81.44
71966;BME280;59836;52.132;5.442;2023-06-22T00:04:52;101982.13;;;18.68;81.38
71966;BME280;59836;52.132;5.442;2023-06-22T00:07:18;101992.28;;;18.68;81.48
71966;BME280;59836;52.132;5.442;2023-06-22T00:09:45;101991.75;;;18.66;81.38
71966;BME280;59836;52.132;5.442;2023-06-22T00:12:11;101994.50;;;18.66;81.32
71966;BME280;59836;52.132;5.442;2023-06-22T00:14:37;101988.50;;;18.64;81.47
71966;BME280;59836;52.132;5.442;2023-06-22T00:17:04;101990.72;;;18.62;81.47
71966;BME280;59836;52.132;5.442;2023-06-22T00:19:30;101981.16;;;18.59;81.30
71966;BME280;59836;52.132;5.442;2023-06-22T00:21:57;101982.06;;;18.54;81.37
71966;BME280;59836;52.132;5.442;2023-06-22T00:24:26;101985.09;;;18.53;81.79
71966;BME280;59836;52.132;5.442;2023-06-22T00:26:52;101990.88;;;18.51;81.67
71966;BME280;59836;52.132;5.442;2023-06-22T00:29:19;101985.69;;;18.50;81.86
71966;BME280;59836;52.132;5.442;2023-06-22T00:31:45;101982.72;;;18.46;81.85
71966;BME280;59836;52.132;5.442;2023-06-22T00:34:12;101972.84;;;18.45;82.15
71966;BME280;59836;52.132;5.442;2023-06-22T00:36:38;101977.81;;;18.43;81.89
71966;BME280;59836;52.132;5.442;2023-06-22T00:39:07;101971.78;;;18.41;82.08
71966;BME280;59836;52.132;5.442;2023-06-22T00:41:34;101966.91;;;18.38;82.26
71966;BME280;59836;52.132;5.442;2023-06-22T00:44:00;101966.38;;;18.36;82.34
71966;BME280;59836;52.132;5.442;2023-06-22T00:46:27;101965.53;;;18.35;82.20
71966;BME280;59836;52.132;5.442;2023-06-22T00:48:54;101968.06;;;18.32;82.43
71966;BME280;59836;52.132;5.442;2023-06-22T00:51:23;101968.66;;;18.28;82.22
71966;BME280;59836;52.132;5.442;2023-06-22T00:53:51;101965.41;;;18.26;82.50
71966;BME280;59836;52.132;5.442;2023-06-22T00:56:20;101968.41;;;18.25;82.19
71966;BME280;59836;52.132;5.442;2023-06-22T00:58:50;101969.84;;;18.22;82.54
71966;BME280;59836;52.132;5.442;2023-06-22T01:01:19;101965.75;;;18.20;82.46
71966;BME280;59836;52.132;5.442;2023-06-22T01:03:50;101958.41;;;18.15;82.37
71966;BME280;59836;52.132;5.442;2023-06-22T01:06:22;101958.97;;;18.12;82.54
71966;BME280;59836;52.132;5.442;2023-06-22T01:09:11;101965.06;;;18.09;82.47
71966;BME280;59836;52.132;5.442;2023-06-22T01:11:45;101965.66;;;18.06;82.39
71966;BME280;59836;52.132;5.442;2023-06-22T01:14:24;101967.88;;;18.04;82.48
71966;BME280;59836;52.132;5.442;2023-06-22T01:16:54;101966.81;;;17.99;82.64
71966;BME280;59836;52.132;5.442;2023-06-22T01:19:38;101976.13;;;17.98;82.74
71966;BME280;59836;52.132;5.442;2023-06-22T01:22:08;101971.22;;;17.95;82.80
71966;BME280;59836;52.132;5.442;2023-06-22T01:24:51;101970.16;;;17.91;82.70
71966;BME280;59836;52.132;5.442;2023-06-22T01:30:16;101956.75;;;17.90;82.79
71966;BME280;59836;52.132;5.442;2023-06-22T01:32:45;101962.00;;;17.86;82.85
71966;BME280;59836;52.132;5.442;2023-06-22T01:35:14;101961.47;;;17.84;82.86
71966;BME280;59836;52.132;5.442;2023-06-22T01:37:41;101951.59;;;17.83;82.86
71966;BME280;59836;52.132;5.442;2023-06-22T01:40:08;101960.41;;;17.80;82.64
71966;BME280;59836;52.132;5.442;2023-06-22T01:42:36;101961.84;;;17.77;82.68
71966;BME280;59836;52.132;5.442;2023-06-22T01:45:03;101963.22;;;17.75;82.70
71966;BME280;59836;52.132;5.442;2023-06-22T01:47:31;101963.78;;;17.71;82.68
71966;BME280;59836;52.132;5.442;2023-06-22T01:49:58;101956.13;;;17.68;82.83
71966;BME280;59836;52.132;5.442;2023-06-22T01:52:24;101952.88;;;17.66;82.68
71966;BME280;59836;52.132;5.442;2023-06-22T01:54:51;101957.56;;;17.66;82.98
71966;BME280;59836;52.132;5.442;2023-06-22T01:57:17;101946.59;;;17.66;82.82
71966;BME280;59836;52.132;5.442;2023-06-22T02:00:04;101958.94;;;17.63;82.79
71966;BME280;59836;52.132;5.442;2023-06-22T02:03:11;101951.59;;;17.59;82.93
71966;BME280;59836;52.132;5.442;2023-06-22T02:05:47;101947.50;;;17.56;83.08
71966;BME280;59836;52.132;5.442;2023-06-22T02:08:20;101949.69;;;17.54;82.92
71966;BME280;59836;52.132;5.442;2023-06-22T02:10:48;101937.09;;;17.53;83.11
71966;BME280;59836;52.132;5.442;2023-06-22T02:13:15;101940.41;;;17.50;82.96
71966;BME280;59836;52.132;5.442;2023-06-22T02:15:42;101938.81;;;17.49;83.00
71966;BME280;59836;52.132;5.442;2023-06-22T02:18:09;101950.91;;;17.48;83.16
71966;BME280;59836;52.132;5.442;2023-06-22T02:20:37;101940.50;;;17.45;82.96
71966;BME280;59836;52.132;5.442;2023-06-22T02:23:05;101942.72;;;17.43;83.21
71966;BME280;59836;52.132;5.442;2023-06-22T02:25:33;101940.25;;;17.41;83.21
71966;BME280;59836;52.132;5.442;2023-06-22T02:27:59;101942.47;;;17.39;83.30
71966;BME280;59836;52.132;5.442;2023-06-22T02:30:26;101940.03;;;17.37;83.42
71966;BME280;59836;52.132;5.442;2023-06-22T02:32:53;101935.34;;;17.38;83.28
71966;BME280;59836;52.132;5.442;2023-06-22T02:35:26;101939.50;;;17.35;83.54
71966;BME280;59836;52.132;5.442;2023-06-22T02:37:53;101941.69;;;17.33;83.40
71966;BME280;59836;52.132;5.442;2023-06-22T02:40:20;101930.22;;;17.31;83.42
71966;BME280;59836;52.132;5.442;2023-06-22T02:42:47;101938.72;;;17.30;83.56
71966;BME280;59836;52.132;5.442;2023-06-22T02:45:13;101935.44;;;17.27;83.29
71966;BME280;59836;52.132;5.442;2023-06-22T02:47:40;101933.00;;;17.26;83.56
71966;BME280;59836;52.132;5.442;2023-06-22T02:50:07;101934.09;;;17.25;83.43
71966;BME280;59836;52.132;5.442;2023-06-22T02:52:33;101932.47;;;17.24;83.66
71966;BME280;59836;52.132;5.442;2023-06-22T02:55:00;101931.09;;;17.21;83.43
71966;BME280;59836;52.132;5.442;2023-06-22T02:57:26;101926.50;;;17.17;83.96
71966;BME280;59836;52.132;5.442;2023-06-22T02:59:53;101929.25;;;17.17;83.69
71966;BME280;59836;52.132;5.442;2023-06-22T03:02:21;101936.94;;;17.15;83.78
71966;BME280;59836;52.132;5.442;2023-06-22T03:04:48;101933.66;;;17.13;83.81
71966;BME280;59836;52.132;5.442;2023-06-22T03:07:15;101937.50;;;17.11;84.15
71966;BME280;59836;52.132;5.442;2023-06-22T03:09:43;101932.59;;;17.08;83.80
71966;BME280;59836;52.132;5.442;2023-06-22T03:12:10;101938.66;;;17.05;84.05
71966;BME280;59836;52.132;5.442;2023-06-22T03:14:37;101940.28;;;17.06;84.64
71966;BME280;59836;52.132;5.442;2023-06-22T03:17:05;101935.06;;;17.05;84.35
71966;BME280;59836;52.132;5.442;2023-06-22T03:19:31;101941.66;;;17.04;84.28
71966;BME280;59836;52.132;5.442;2023-06-22T03:21:59;101937.59;;;17.01;84.25
71966;BME280;59836;52.132;5.442;2023-06-22T03:24:26;101932.09;;;17.01;84.39
71966;BME280;59836;52.132;5.442;2023-06-22T03:26:55;101940.59;;;17.00;84.53
71966;BME280;59836;52.132;5.442;2023-06-22T03:29:23;101935.13;;;17.00;84.02
71966;BME280;59836;52.132;5.442;2023-06-22T03:31:51;101920.63;;;16.99;84.42
71966;BME280;59836;52.132;5.442;2023-06-22T03:34:18;101917.03;;;16.99;84.36
71966;BME280;59836;52.132;5.442;2023-06-22T03:36:45;101922.53;;;16.99;84.28
71966;BME280;59836;52.132;5.442;2023-06-22T03:39:11;101920.09;;;16.97;84.36
71966;BME280;59836;52.132;5.442;2023-06-22T03:41:38;101912.94;;;16.96;84.62
71966;BME280;59836;52.132;5.442;2023-06-22T03:44:05;101913.22;;;16.94;84.62
71966;BME280;59836;52.132;5.442;2023-06-22T03:46:31;101912.94;;;16.96;84.89
71966;BME280;59836;52.132;5.442;2023-06-22T03:48:58;101912.41;;;16.94;84.99
71966;BME280;59836;52.132;5.442;2023-06-22T03:51:24;101909.66;;;16.94;84.90
71966;BME280;59836;52.132;5.442;2023-06-22T03:53:51;101914.03;;;16.95;84.74
71966;BME280;59836;52.132;5.442;2023-06-22T03:56:17;101909.66;;;16.94;84.74
71966;BME280;59836;52.132;5.442;2023-06-22T03:58:46;101908.56;;;16.95;84.84
71966;BME280;59836;52.132;5.442;2023-06-22T04:01:13;101905.81;;;16.95;85.23
71966;BME280;59836;52.132;5.442;2023-06-22T04:03:40;101907.44;;;16.96;85.38
71966;BME280;59836;52.132;5.442;2023-06-22T04:06:07;101909.13;;;16.97;85.20
71966;BME280;59836;52.132;5.442;2023-06-22T04:08:34;101902.81;;;16.96;85.36
71966;BME280;59836;52.132;5.442;2023-06-22T04:11:00;101905.28;;;16.98;85.20
71966;BME280;59836;52.132;5.442;2023-06-22T04:13:27;101897.06;;;16.98;85.40
71966;BME280;59836;52.132;5.442;2023-06-22T04:15:53;101899.78;;;16.98;85.81
71966;BME280;59836;52.132;5.442;2023-06-22T04:18:20;101896.75;;;17.00;85.63
71966;BME280;59836;52.132;5.442;2023-06-22T04:20:46;101894.84;;;17.00;85.60
71966;BME280;59836;52.132;5.442;2023-06-22T04:23:13;101893.75;;;17.01;85.87
71966;BME280;59836;52.132;5.442;2023-06-22T04:25:40;101890.69;;;17.03;85.99
71966;BME280;59836;52.132;5.442;2023-06-22T04:28:06;101895.59;;;17.06;86.09
71966;BME280;59836;52.132;5.442;2023-06-22T04:30:33;101890.38;;;17.09;86.14
71966;BME280;59836;52.132;5.442;2023-06-22T04:32:59;101894.44;;;17.12;86.47
71966;BME280;59836;52.132;5.442;2023-06-22T04:35:26;101895.28;;;17.13;86.66
71966;BME280;59836;52.132;5.442;2023-06-22T04:37:58;101891.97;;;17.16;86.51
71966;BME280;59836;52.132;5.442;2023-06-22T04:40:24;101887.22;;;17.21;86.54
71966;BME280;59836;52.132;5.442;2023-06-22T04:42:51;101891.81;;;17.31;86.22
71966;BME280;59836;52.132;5.442;2023-06-22T04:45:20;101889.31;;;17.35;86.12
71966;BME280;59836;52.132;5.442;2023-06-22T04:47:48;101896.66;;;17.39;86.43
71966;BME280;59836;52.132;5.442;2023-06-22T04:50:15;101897.72;;;17.44;86.24
71966;BME280;59836;52.132;5.442;2023-06-22T04:52:41;101892.19;;;17.49;86.30
71966;BME280;59836;52.132;5.442;2023-06-22T04:55:08;101894.03;;;17.53;85.98
71966;BME280;59836;52.132;5.442;2023-06-22T04:57:35;101892.63;;;17.56;86.07
71966;BME280;59836;52.132;5.442;2023-06-22T05:00:02;101898.38;;;17.60;85.44
71966;BME280;59836;52.132;5.442;2023-06-22T05:02:39;101899.41;;;17.64;85.88
71966;BME280;59836;52.132;5.442;2023-06-22T05:05:06;101897.19;;;17.66;86.00
71966;BME280;59836;52.132;5.442;2023-06-22T05:07:34;101906.19;;;17.71;85.69
71966;BME280;59836;52.132;5.442;2023-06-22T05:10:04;101903.16;;;17.73;85.89
71966;BME280;59836;52.132;5.442;2023-06-22T05:12:31;101905.59;;;17.75;86.03
71966;BME280;59836;52.132;5.442;2023-06-22T05:14:57;101905.31;;;17.76;86.16
71966;BME280;59836;52.132;5.442;2023-06-22T05:17:24;101902.00;;;17.79;86.22
71966;BME280;59836;52.132;5.442;2023-06-22T05:19:51;101901.94;;;17.84;86.42
71966;BME280;59836;52.132;5.442;2023-06-22T05:22:18;101908.16;;;17.90;86.27
71966;BME280;59836;52.132;5.442;2023-06-22T05:24:45;101904.81;;;17.93;86.27
71966;BME280;59836;52.132;5.442;2023-06-22T05:27:11;101902.31;;;17.97;86.21
71966;BME280;59836;52.132;5.442;2023-06-22T05:29:37;101900.34;;;18.03;86.15
71966;BME280;59836;52.132;5.442;2023-06-22T05:32:04;101901.41;;;18.07;86.59
71966;BME280;59836;52.132;5.442;2023-06-22T05:34:31;101901.41;;;18.07;86.58
71966;BME280;59836;52.132;5.442;2023-06-22T05:36:57;101899.38;;;18.12;86.39
71966;BME280;59836;52.132;5.442;2023-06-22T05:39:27;101905.91;;;18.17;86.71
71966;BME280;59836;52.132;5.442;2023-06-22T05:41:53;101906.69;;;18.22;86.37
71966;BME280;59836;52.132;5.442;2023-06-22T05:44:20;101909.34;;;18.27;86.27
71966;BME280;59836;52.132;5.442;2023-06-22T05:46:46;101908.97;;;18.34;86.00
71966;BME280;59836;52.132;5.442;2023-06-22T05:49:15;101906.75;;;18.36;86.41
71966;BME280;59836;52.132;5.442;2023-06-22T05:51:42;101909.72;;;18.40;85.76
71966;BME280;59836;52.132;5.442;2023-06-22T05:54:09;101901.41;;;18.45;86.43
71966;BME280;59836;52.132;5.442;2023-06-22T05:56:36;101906.31;;;18.48;86.04
71966;BME280;59836;52.132;5.442;2023-06-22T05:59:03;101911.22;;;18.51;85.97
71966;BME280;59836;52.132;5.442;2023-06-22T06:01:30;101913.88;;;18.56;85.95
71966;BME280;59836;52.132;5.442;2023-06-22T06:04:02;101913.50;;;18.63;85.70
71966;BME280;59836;52.132;5.442;2023-06-22T06:06:30;101907.63;;;18.70;85.41
71966;BME280;59836;52.132;5.442;2023-06-22T06:08:57;101904.50;;;18.77;85.38
71966;BME280;59836;52.132;5.442;2023-06-22T06:11:24;101907.97;;;18.82;85.73
71966;BME280;59836;52.132;5.442;2023-06-22T06:13:51;101902.41;;;18.87;85.80
71966;BME280;59836;52.132;5.442;2023-06-22T06:16:18;101899.56;;;18.93;85.30
71966;BME280;59836;52.132;5.442;2023-06-22T06:18:44;101896.75;;;18.98;85.66
71966;BME280;59836;52.132;5.442;2023-06-22T06:21:10;101890.06;;;19.04;85.55
71966;BME280;59836;52.132;5.442;2023-06-22T06:23:37;101880.09;;;19.08;85.97
71966;BME280;59836;52.132;5.442;2023-06-22T06:26:03;101886.00;;;19.15;85.93
71966;BME280;59836;52.132;5.442;2023-06-22T06:28:34;101877.66;;;19.21;85.16
71966;BME280;59836;52.132;5.442;2023-06-22T06:31:00;101894.28;;;19.29;84.80
71966;BME280;59836;52.132;5.442;2023-06-22T06:33:27;101882.88;;;19.36;84.39
71966;BME280;59836;52.132;5.442;2023-06-22T06:35:53;101876.16;;;19.42;85.39
71966;BME280;59836;52.132;5.442;2023-06-22T06:38:22;101877.69;;;19.49;84.83
71966;BME280;59836;52.132;5.442;2023-06-22T06:40:48;101876.47;;;19.55;84.58
71966;BME280;59836;52.132;5.442;2023-06-22T06:43:15;101871.34;;;19.62;84.43
71966;BME280;59836;52.132;5.442;2023-06-22T06:45:42;101870.97;;;19.69;84.27
71966;BME280;59836;52.132;5.442;2023-06-22T06:48:08;101876.88;;;19.76;84.09
71966;BME280;59836;52.132;5.442;2023-06-22T06:50:36;101865.44;;;19.83;83.72
71966;BME280;59836;52.132;5.442;2023-06-22T06:53:02;101872.50;;;19.89;83.52
71966;BME280;59836;52.132;5.442;2023-06-22T06:55:28;101869.34;;;19.96;83.20
71966;BME280;59836;52.132;5.442;2023-06-22T06:57:59;101860.63;;;20.02;84.23
71966;BME280;59836;52.132;5.442;2023-06-22T07:00:26;101863.28;;;20.08;84.03
71966;BME280;59836;52.132;5.442;2023-06-22T07:02:53;101866.75;;;20.13;83.77
71966;BME280;59836;52.132;5.442;2023-06-22T07:05:25;101868.22;;;20.19;83.38
71966;BME280;59836;52.132;5.442;2023-06-22T07:07:52;101862.94;;;20.23;83.33
71966;BME280;59836;52.132;5.442;2023-06-22T07:10:41;101863.44;;;20.25;82.76
71966;BME280;59836;52.132;5.442;2023-06-22T07:13:08;101855.34;;;20.29;82.13
71966;BME280;59836;52.132;5.442;2023-06-22T07:15:34;101861.88;;;20.33;81.71
71966;BME280;59836;52.132;5.442;2023-06-22T07:18:01;101862.06;;;20.37;82.47
71966;BME280;59836;52.132;5.442;2023-06-22T07:20:27;101862.25;;;20.40;81.70
71966;BME280;59836;52.132;5.442;2023-06-22T07:22:54;101858.56;;;20.45;81.54
71966;BME280;59836;52.132;5.442;2023-06-22T07:25:21;101859.59;;;20.49;81.66
71966;BME280;59836;52.132;5.442;2023-06-22T07:30:24;101858.22;;;20.60;80.46
71966;BME280;59836;52.132;5.442;2023-06-22T07:33:02;101870.75;;;20.67;79.64
71966;BME280;59836;52.132;5.442;2023-06-22T07:35:30;101860.69;;;20.71;79.05
71966;BME280;59836;52.132;5.442;2023-06-22T07:37:57;101859.97;;;20.79;78.96
71966;BME280;59836;52.132;5.442;2023-06-22T07:40:24;101851.88;;;20.83;78.82
71966;BME280;59836;52.132;5.442;2023-06-22T07:42:50;101852.56;;;20.88;78.76
71966;BME280;59836;52.132;5.442;2023-06-22T07:45:21;101845.28;;;20.92;78.65
71966;BME280;59836;52.132;5.442;2023-06-22T07:47:48;101839.63;;;20.98;78.04
71966;BME280;59836;52.132;5.442;2023-06-22T07:50:17;101836.25;;;21.01;77.85
71966;BME280;59836;52.132;5.442;2023-06-22T07:52:43;101830.09;;;21.04;77.67
71966;BME280;59836;52.132;5.442;2023-06-22T07:55:10;101825.06;;;21.06;77.15
71966;BME280;59836;52.132;5.442;2023-06-22T07:57:36;101831.91;;;21.08;77.30
71966;BME280;59836;52.132;5.442;2023-06-22T08:00:05;101832.06;;;21.12;77.01
71966;BME280;59836;52.132;5.442;2023-06-22T08:02:44;101826.75;;;21.16;77.29
71966;BME280;59836;52.132;5.442;2023-06-22T08:05:11;101823.81;;;21.21;76.83
71966;BME280;59836;52.132;5.442;2023-06-22T08:07:47;101818.50;;;21.24;76.56
71966;BME280;59836;52.132;5.442;2023-06-22T08:10:20;101817.22;;;21.31;76.33
71966;BME280;59836;52.132;5.442;2023-06-22T08:12:47;101815.44;;;21.35;75.82
71966;BME280;59836;52.132;5.442;2023-06-22T08:15:13;101807.03;;;21.40;75.64
71966;BME280;59836;52.132;5.442;2023-06-22T08:17:40;101811.56;;;21.45;75.25
71966;BME280;59836;52.132;5.442;2023-06-22T08:20:07;101808.66;;;21.50;75.71
71966;BME280;59836;52.132;5.442;2023-06-22T08:22:41;101802.69;;;21.57;76.70
71966;BME280;59836;52.132;5.442;2023-06-22T08:25:09;101800.31;;;21.64;76.54
71966;BME280;59836;52.132;5.442;2023-06-22T08:27:38;101796.25;;;21.70;75.92
71966;BME280;59836;52.132;5.442;2023-06-22T08:30:06;101786.16;;;21.74;75.53
71966;BME280;59836;52.132;5.442;2023-06-22T08:32:45;101785.19;;;21.79;73.83
71966;BME280;59836;52.132;5.442;2023-06-22T08:35:12;101772.38;;;21.83;73.16
71966;BME280;59836;52.132;5.442;2023-06-22T08:37:39;101769.44;;;21.88;71.97
71966;BME280;59836;52.132;5.442;2023-06-22T08:50:17;101768.97;;;22.04;69.64
71966;BME280;59836;52.132;5.442;2023-06-22T08:52:54;101760.50;;;22.09;69.93
71966;BME280;59836;52.132;5.442;2023-06-22T08:55:43;101760.84;;;22.16;70.69
71966;BME280;59836;52.132;5.442;2023-06-22T08:58:10;101762.44;;;22.26;69.35
71966;BME280;59836;52.132;5.442;2023-06-22T09:00:37;101757.88;;;22.30;69.86
71966;BME280;59836;52.132;5.442;2023-06-22T09:03:04;101762.88;;;22.37;70.44
71966;BME280;59836;52.132;5.442;2023-06-22T09:05:31;101758.19;;;22.37;69.79
71966;BME280;59836;52.132;5.442;2023-06-22T09:07:58;101761.28;;;22.36;68.91
71966;BME280;59836;52.132;5.442;2023-06-22T09:10:29;101759.00;;;22.38;68.33
71966;BME280;59836;52.132;5.442;2023-06-22T09:12:57;101754.78;;;22.40;65.14
71966;BME280;59836;52.132;5.442;2023-06-22T09:15:25;101759.31;;;22.45;65.41
71966;BME280;59836;52.132;5.442;2023-06-22T09:17:52;101756.25;;;22.47;65.18
71966;BME280;59836;52.132;5.442;2023-06-22T09:20:20;101758.66;;;22.48;66.44
71966;BME280;59836;52.132;5.442;2023-06-22T09:22:47;101769.06;;;22.51;66.42
71966;BME280;59836;52.132;5.442;2023-06-22T09:25:14;101749.41;;;22.53;68.21
71966;BME280;59836;52.132;5.442;2023-06-22T09:27:40;101753.44;;;22.55;66.86
71966;BME280;59836;52.132;5.442;2023-06-22T09:30:13;101756.38;;;22.59;66.51
71966;BME280;59836;52.132;5.442;2023-06-22T09:32:39;101759.63;;;22.61;66.68
71966;BME280;59836;52.132;5.442;2023-06-22T09:35:07;101761.72;;;22.64;65.58
71966;BME280;59836;52.132;5.442;2023-06-22T09:37:35;101747.25;;;22.67;65.23
71966;BME280;59836;52.132;5.442;2023-06-22T09:40:02;101749.00;;;22.72;65.72
71966;BME280;59836;52.132;5.442;2023-06-22T09:42:34;101755.84;;;22.75;65.04
71966;BME280;59836;52.132;5.442;2023-06-22T09:45:01;101750.09;;;22.80;65.51
71966;BME280;59836;52.132;5.442;2023-06-22T09:47:29;101750.75;;;22.85;66.38
71966;BME280;59836;52.132;5.442;2023-06-22T09:49:55;101740.28;;;22.91;65.98
71966;BME280;59836;52.132;5.442;2023-06-22T09:52:22;101735.06;;;22.98;65.91
71966;BME280;59836;52.132;5.442;2023-06-22T09:54:56;101734.88;;;23.04;64.19
71966;BME280;59836;52.132;5.442;2023-06-22T09:57:22;101740.41;;;23.04;65.67
71966;BME280;59836;52.132;5.442;2023-06-22T09:59:51;101740.41;;;23.04;65.63
71966;BME280;59836;52.132;5.442;2023-06-22T10:02:17;101737.16;;;23.02;67.13
71966;BME280;59836;52.132;5.442;2023-06-22T10:04:44;101738.78;;;23.03;65.80
71966;BME280;59836;52.132;5.442;2023-06-22T10:07:12;101735.53;;;23.00;65.94
71966;BME280;59836;52.132;5.442;2023-06-22T10:09:38;101746.94;;;22.99;66.44
71966;BME280;59836;52.132;5.442;2023-06-22T10:12:05;101742.41;;;22.94;66.08
71966;BME280;59836;52.132;5.442;2023-06-22T10:14:32;101741.91;;;22.92;65.81
71966;BME280;59836;52.132;5.442;2023-06-22T10:16:58;101739.03;;;22.89;66.43
71966;BME280;59836;52.132;5.442;2023-06-22T10:19:25;101734.94;;;22.86;66.70
71966;BME280;59836;52.132;5.442;2023-06-22T10:21:52;101725.03;;;22.85;66.48
71966;BME280;59836;52.132;5.442;2023-06-22T10:24:18;101730.09;;;22.83;65.71
71966;BME280;59836;52.132;5.442;2023-06-22T10:26:45;101721.31;;;22.81;65.13
71966;BME280;59836;52.132;5.442;2023-06-22T10:29:11;101731.91;;;22.79;66.05
71966;BME280;59836;52.132;5.442;2023-06-22T10:31:43;101734.53;;;22.75;66.21
71966;BME280;59836;52.132;5.442;2023-06-22T10:34:09;101743.16;;;22.74;65.33
71966;BME280;59836;52.132;5.442;2023-06-22T10:36:36;101735.19;;;22.72;65.62
71966;BME280;59836;52.132;5.442;2023-06-22T10:39:02;101740.56;;;22.68;65.56
71966;BME280;59836;52.132;5.442;2023-06-22T10:41:29;101743.66;;;22.67;66.42
71966;BME280;59836;52.132;5.442;2023-06-22T10:43:57;101744.31;;;22.64;66.90
71966;BME280;59836;52.132;5.442;2023-06-22T10:46:24;101743.03;;;22.61;66.74
71966;BME280;59836;52.132;5.442;2023-06-22T10:48:51;101741.72;;;22.59;66.96
71966;BME280;59836;52.132;5.442;2023-06-22T10:51:20;101742.88;;;22.58;66.90
71966;BME280;59836;52.132;5.442;2023-06-22T10:53:47;101742.38;;;22.55;66.53
71966;BME280;59836;52.132;5.442;2023-06-22T10:56:14;101745.97;;;22.56;66.60
71966;BME280;59836;52.132;5.442;2023-06-22T10:58:40;101743.22;;;22.56;66.97
71966;BME280;59836;52.132;5.442;2023-06-22T11:01:07;101738.34;;;22.53;67.07
71966;BME280;59836;52.132;5.442;2023-06-22T11:03:42;101736.06;;;22.55;66.63
71966;BME280;59836;52.132;5.442;2023-06-22T11:06:09;101738.84;;;22.55;67.01
71966;BME280;59836;52.132;5.442;2023-06-22T11:08:35;101744.84;;;22.57;66.49
71966;BME280;59836;52.132;5.442;2023-06-22T11:11:02;101728.75;;;22.59;66.07
71966;BME280;59836;52.132;5.442;2023-06-22T11:13:28;101725.31;;;22.62;65.66
71966;BME280;59836;52.132;5.442;2023-06-22T11:15:55;101723.81;;;22.65;65.76
71966;BME280;59836;52.132;5.442;2023-06-22T11:18:21;101722.38;;;22.67;66.00
71966;BME280;59836;52.132;5.442;2023-06-22T11:20:49;101714.56;;;22.69;66.23
71966;BME280;59836;52.132;5.442;2023-06-22T11:23:18;101721.03;;;22.74;65.33
71966;BME280;59836;52.132;5.442;2023-06-22T11:25:47;101724.28;;;22.76;65.63
71966;BME280;59836;52.132;5.442;2023-06-22T11:28:13;101722.00;;;22.78;65.71
71966;BME280;59836;52.132;5.442;2023-06-22T11:30:40;101718.53;;;22.81;65.80
71966;BME280;59836;52.132;5.442;2023-06-22T11:33:07;101719.03;;;22.83;65.57
71966;BME280;59836;52.132;5.442;2023-06-22T11:35:33;101716.72;;;22.85;65.52
71966;BME280;59836;52.132;5.442;2023-06-22T11:38:00;101707.28;;;22.86;66.80
71966;BME280;59836;52.132;5.442;2023-06-22T11:40:26;101699.81;;;22.87;66.54
71966;BME280;59836;52.132;5.442;2023-06-22T11:42:53;101696.38;;;22.90;65.58
71966;BME280;59836;52.132;5.442;2023-06-22T11:45:20;101694.41;;;22.90;65.11
71966;BME280;59836;52.132;5.442;2023-06-22T11:47:47;101685.81;;;22.92;65.05
71966;BME280;59836;52.132;5.442;2023-06-22T11:50:13;101690.97;;;22.93;65.26
71966;BME280;59836;52.132;5.442;2023-06-22T11:52:40;101690.31;;;22.96;66.26
71966;BME280;59836;52.132;5.442;2023-06-22T11:55:07;101695.53;;;22.98;65.47
71966;BME280;59836;52.132;5.442;2023-06-22T11:57:35;101686.41;;;22.97;65.64
71966;BME280;59836;52.132;5.442;2023-06-22T12:00:05;101680.22;;;23.00;65.37
71966;BME280;59836;52.132;5.442;2023-06-22T12:02:40;101688.97;;;23.03;65.79
71966;BME280;59836;52.132;5.442;2023-06-22T12:05:07;101677.91;;;23.03;65.95
71966;BME280;59836;52.132;5.442;2023-06-22T12:07:34;101687.50;;;23.05;65.79
71966;BME280;59836;52.132;5.442;2023-06-22T12:10:01;101687.16;;;23.07;65.36
71966;BME280;59836;52.132;5.442;2023-06-22T12:12:27;101681.97;;;23.05;65.63
71966;BME280;59836;52.132;5.442;2023-06-22T12:14:54;101681.16;;;23.05;66.23
71966;BME280;59836;52.132;5.442;2023-06-22T12:17:20;101674.47;;;23.06;66.04
71966;BME280;59836;52.132;5.442;2023-06-22T12:19:47;101681.63;;;23.07;66.35
71966;BME280;59836;52.132;5.442;2023-06-22T12:22:14;101676.44;;;23.05;67.24
71966;BME280;59836;52.132;5.442;2023-06-22T12:24:40;101671.72;;;23.06;68.22
71966;BME280;59836;52.132;5.442;2023-06-22T12:27:06;101672.06;;;23.04;68.66
71966;BME280;59836;52.132;5.442;2023-06-22T12:29:33;101672.38;;;23.03;70.85
71966;BME280;59836;52.132;5.442;2023-06-22T12:31:59;101668.66;;;22.98;70.77
71966;BME280;59836;52.132;5.442;2023-06-22T12:34:26;101672.09;;;22.95;72.95
71966;BME280;59836;52.132;5.442;2023-06-22T12:36:52;101667.22;;;22.92;73.81
71966;BME280;59836;52.132;5.442;2023-06-22T12:39:20;101670.19;;;22.87;74.29
71966;BME280;59836;52.132;5.442;2023-06-22T12:41:47;101663.69;;;22.83;74.16
71966;BME280;59836;52.132;5.442;2023-06-22T12:44:13;101665.06;;;22.77;74.56
71966;BME280;59836;52.132;5.442;2023-06-22T12:46:40;101666.88;;;22.73;74.51
71966;BME280;59836;52.132;5.442;2023-06-22T12:49:06;101665.09;;;22.68;74.04
71966;BME280;59836;52.132;5.442;2023-06-22T12:51:33;101655.84;;;22.64;73.83
71966;BME280;59836;52.132;5.442;2023-06-22T12:54:00;101662.03;;;22.61;74.39
71966;BME280;59836;52.132;5.442;2023-06-22T12:56:26;101664.19;;;22.55;73.60
71966;BME280;59836;52.132;5.442;2023-06-22T12:58:53;101649.41;;;22.51;72.07
71966;BME280;59836;52.132;5.442;2023-06-22T13:01:19;101649.72;;;22.49;71.86
71966;BME280;59836;52.132;5.442;2023-06-22T13:03:46;101650.53;;;22.50;72.38
71966;BME280;59836;52.132;5.442;2023-06-22T13:06:14;101640.16;;;22.47;72.19
71966;BME280;59836;52.132;5.442;2023-06-22T13:08:40;101631.84;;;22.47;71.80
71966;BME280;59836;52.132;5.442;2023-06-22T13:11:27;101630.88;;;22.42;73.77